createdAt,value
2019-06-20T04:14:09.220Z,168.00
2019-06-20T04:20:31.526Z,168.00
2019-06-20T04:23:31.509Z,188.00
2019-06-20T04:33:31.390Z,340.00
2019-06-20T04:49:31.213Z,1072.00
2019-06-20T04:56:31.134Z,1264.00
2019-06-20T05:06:31.035Z,748.00
2019-06-20T05:09:31.007Z,1176.00
2019-06-20T05:27:30.810Z,1284.00
2019-06-20T05:36:30.708Z,1492.00
2019-06-20T06:42:51.472Z,3064.00
2019-06-20T06:49:51.393Z,2492.00
2019-06-20T06:53:51.454Z,2184.00
2019-06-20T06:55:51.343Z,2280.00
2019-06-20T07:03:51.238Z,2740.00
2019-06-20T07:18:12.678Z,3600.00
2019-06-20T07:19:12.740Z,3704.00
2019-06-20T07:20:15.144Z,3676.00
2019-06-20T07:21:12.634Z,4244.00
2019-06-20T07:22:12.612Z,4460.00
2019-06-20T07:23:12.702Z,4092.00
2019-06-20T07:24:12.614Z,3780.00
2019-06-20T07:25:12.587Z,3088.00
2019-06-20T07:26:12.576Z,3056.00
2019-06-20T07:27:12.567Z,2952.00
2019-06-20T07:28:12.543Z,2940.00
2019-06-20T07:29:12.539Z,3124.00
2019-06-20T07:30:12.550Z,2868.00
2019-06-20T07:31:13.536Z,2940.00
2019-06-20T07:32:12.715Z,3116.00
2019-06-20T07:33:12.521Z,3312.00
2019-06-20T07:34:12.483Z,3096.00
2019-06-20T07:35:12.483Z,2860.00
2019-06-20T07:36:12.459Z,2676.00
2019-06-20T07:37:12.460Z,2808.00
2019-06-20T07:38:12.440Z,2780.00
2019-06-20T07:39:12.448Z,2748.00
2019-06-20T07:40:12.414Z,2632.00
2019-06-20T07:41:12.419Z,2968.00
2019-06-20T07:42:12.451Z,3168.00
2019-06-20T07:43:12.425Z,2868.00
2019-06-20T07:44:12.370Z,3540.00
2019-06-20T07:45:12.363Z,3416.00
2019-06-20T07:46:12.377Z,2972.00
2019-06-20T07:47:17.648Z,2964.00
2019-06-20T07:48:12.338Z,2964.00
2019-06-20T07:49:12.333Z,2816.00
2019-06-20T07:50:12.304Z,2752.00
2019-06-20T07:51:12.341Z,2772.00
2019-06-20T07:52:12.285Z,3032.00
2019-06-20T07:53:12.287Z,3148.00
2019-06-20T07:54:12.265Z,3160.00
2019-06-20T07:55:12.261Z,2840.00
2019-06-20T07:56:12.241Z,2712.00
2019-06-20T07:57:12.230Z,2864.00
2019-06-20T07:58:12.219Z,2228.00
2019-06-20T07:59:12.203Z,2324.00
2019-06-20T08:00:12.201Z,2376.00
2019-06-20T08:01:12.190Z,2208.00
2019-06-20T08:02:12.170Z,2092.00
2019-06-20T08:03:12.226Z,2152.00
2019-06-20T08:04:12.158Z,2184.00
2019-06-20T08:05:13.137Z,1972.00
2019-06-20T08:06:12.131Z,2092.00
2019-06-20T08:07:12.119Z,2100.00
2019-06-20T08:08:12.174Z,2376.00
2019-06-20T08:09:12.089Z,2228.00
2019-06-20T08:10:12.153Z,2348.00
2019-06-20T08:11:12.081Z,2420.00
2019-06-20T08:12:12.142Z,2664.00
2019-06-20T08:13:12.085Z,2812.00
2019-06-20T08:14:12.064Z,2352.00
2019-06-20T08:15:15.593Z,2516.00
2019-06-20T08:16:12.131Z,2696.00
2019-06-20T08:17:12.033Z,2748.00
2019-06-20T08:18:12.024Z,2552.00
2019-06-20T08:19:12.052Z,2572.00
2019-06-20T08:20:12.024Z,2464.00
2019-06-20T08:21:12.012Z,2412.00
2019-06-20T08:22:11.959Z,2540.00
2019-06-20T08:23:11.991Z,2672.00
2019-06-20T08:24:11.944Z,2476.00
2019-06-20T08:25:11.921Z,2196.00
2019-06-20T08:26:11.906Z,2600.00
2019-06-20T08:27:14.860Z,2376.00
2019-06-20T08:28:11.881Z,2384.00
2019-06-20T08:29:20.786Z,2576.00
2019-06-20T08:30:34.870Z,2756.00
2019-06-20T08:31:34.832Z,2704.00
2019-06-20T08:32:34.817Z,2848.00
2019-06-20T08:33:34.801Z,2984.00
2019-06-20T08:34:34.872Z,2824.00
2019-06-20T08:35:34.816Z,3000.00
2019-06-20T08:36:34.787Z,3124.00
2019-06-20T08:37:34.764Z,3180.00
2019-06-20T08:38:34.758Z,3456.00
2019-06-20T08:39:34.818Z,3344.00
2019-06-20T08:40:34.732Z,3652.00
2019-06-20T08:41:34.713Z,3660.00
2019-06-20T08:42:34.737Z,3872.00
2019-06-20T08:43:34.756Z,3904.00
2019-06-20T08:44:34.732Z,3748.00
2019-06-20T08:45:34.694Z,3484.00
2019-06-20T08:46:34.665Z,3456.00
2019-06-20T08:47:34.666Z,3428.00
2019-06-20T08:48:34.721Z,3436.00
2019-06-20T08:49:34.624Z,3056.00
2019-06-20T08:50:34.623Z,3132.00
2019-06-20T08:51:34.613Z,3156.00
2019-06-20T08:52:34.599Z,3196.00
2019-06-20T08:53:34.578Z,3176.00
2019-06-20T08:54:34.605Z,3108.00
2019-06-20T08:55:34.565Z,3064.00
2019-06-20T08:56:34.618Z,3044.00
2019-06-20T08:57:34.537Z,3124.00
2019-06-20T08:58:34.536Z,3112.00
2019-06-20T08:59:34.534Z,3088.00
2019-06-20T09:00:34.556Z,3192.00
2019-06-20T09:01:34.498Z,3392.00
2019-06-20T09:02:34.540Z,3476.00
2019-06-20T09:03:34.486Z,3472.00
2019-06-20T09:04:34.521Z,3596.00
2019-06-20T09:05:34.458Z,3548.00
2019-06-20T09:06:34.452Z,3516.00
2019-06-20T09:07:34.447Z,3440.00
2019-06-20T09:08:34.429Z,3508.00
2019-06-20T09:09:34.408Z,3480.00
2019-06-20T09:10:34.414Z,3480.00
2019-06-20T09:11:34.400Z,3456.00
2019-06-20T09:12:34.383Z,3444.00
2019-06-20T09:13:34.401Z,3360.00
2019-06-20T09:14:34.354Z,3312.00
2019-06-20T09:41:34.514Z,2256.00
2019-06-20T09:48:34.440Z,2692.00
2019-06-20T10:06:34.302Z,2184.00
2019-06-20T10:12:34.176Z,3168.00
2019-06-20T10:17:56.046Z,2120.00
2019-06-20T10:18:56.584Z,2168.00
2019-06-20T10:19:56.332Z,2224.00
2019-06-20T10:23:56.058Z,2800.00
2019-06-20T10:32:57.556Z,2228.00
2019-06-20T10:40:59.749Z,1956.00
2019-06-20T10:48:55.729Z,2112.00
2019-06-20T10:55:55.861Z,2288.00
2019-06-20T11:01:55.569Z,3400.00
2019-06-20T12:20:16.358Z,3288.00
2019-06-20T12:46:16.107Z,2708.00
2019-06-20T12:54:15.999Z,1144.00
2019-06-20T13:57:15.311Z,3488.00
2019-06-20T14:06:15.293Z,2332.00
2019-06-20T14:15:15.147Z,1852.00
2019-06-20T14:20:15.096Z,2448.00
2019-06-20T14:21:15.040Z,2452.00
2019-06-20T14:28:14.971Z,2100.00
2019-06-20T14:31:14.946Z,2228.00
2019-06-20T14:33:36.637Z,2812.00
2019-06-20T14:34:36.621Z,3168.00
2019-06-20T14:36:36.618Z,3508.00
2019-06-20T14:39:36.611Z,3476.00
2019-06-20T14:40:36.558Z,3444.00
2019-06-20T14:43:36.541Z,2920.00
2019-06-20T14:46:36.500Z,2196.00
2019-06-20T14:48:36.468Z,1360.00
2019-06-20T14:50:36.446Z,660.00
2019-06-20T14:51:36.438Z,576.00
2019-06-20T14:53:36.422Z,516.00
2019-06-20T14:54:36.422Z,564.00
2019-06-20T14:57:36.377Z,528.00
2019-06-20T14:58:36.367Z,516.00
2019-06-20T14:59:36.353Z,468.00
2019-06-20T15:16:05.570Z,1972.00
2019-06-20T15:17:05.556Z,2192.00
2019-06-20T15:18:05.527Z,2268.00
2019-06-20T15:19:05.527Z,2328.00
2019-06-20T15:20:05.570Z,2420.00
2019-06-20T15:21:05.539Z,2436.00
2019-06-20T15:22:05.478Z,2320.00
2019-06-20T15:23:05.515Z,2212.00
2019-06-20T15:24:05.693Z,2140.00
2019-06-20T15:25:05.448Z,2080.00
2019-06-20T15:26:05.447Z,2060.00
2019-06-20T15:27:05.427Z,2136.00
2019-06-20T15:28:05.441Z,2196.00
2019-06-20T15:29:06.341Z,2052.00
2019-06-20T15:30:08.402Z,1928.00
2019-06-20T15:31:05.377Z,1892.00
2019-06-20T15:33:10.005Z,1792.00
2019-06-20T15:34:05.348Z,1660.00
2019-06-20T15:35:05.333Z,1604.00
2019-06-20T15:36:05.374Z,1688.00
2019-06-20T15:37:06.449Z,1824.00
2019-06-20T15:38:05.347Z,1996.00
2019-06-20T15:39:05.299Z,2196.00
2019-06-20T15:40:05.290Z,2256.00
2019-06-20T15:41:05.261Z,2120.00
2019-06-20T15:42:05.257Z,2000.00
2019-06-20T15:43:05.241Z,1908.00
2019-06-20T15:44:05.230Z,1916.00
2019-06-20T15:45:05.219Z,2040.00
2019-06-20T15:46:05.254Z,2144.00
2019-06-20T15:47:05.196Z,2232.00
2019-06-20T15:48:05.185Z,2192.00
2019-06-20T15:49:15.772Z,2024.00
2019-06-20T15:50:27.558Z,1904.00
2019-06-20T15:51:27.576Z,1944.00
2019-06-20T15:52:27.516Z,1968.00
2019-06-20T15:53:27.812Z,1856.00
2019-06-20T15:54:27.496Z,1688.00
2019-06-20T15:55:27.485Z,1592.00
2019-06-20T15:56:27.477Z,1472.00
2019-06-20T15:57:27.525Z,1396.00
2019-06-20T15:58:27.491Z,1368.00
2019-06-20T15:59:27.443Z,1384.00
2019-06-20T16:00:27.437Z,1412.00
2019-06-20T16:01:27.437Z,1468.00
2019-06-20T16:02:27.413Z,1468.00
2019-06-20T16:03:27.427Z,1408.00
2019-06-20T16:04:27.389Z,1404.00
2019-06-20T16:05:27.445Z,1480.00
2019-06-20T16:06:27.373Z,1532.00
2019-06-20T16:07:27.389Z,1552.00
2019-06-20T16:08:27.344Z,1572.00
2019-06-20T16:09:27.340Z,1640.00
2019-06-20T16:10:27.323Z,1720.00
2019-06-20T16:11:27.320Z,1752.00
2019-06-20T16:12:27.343Z,1744.00
2019-06-20T16:13:27.290Z,1672.00
2019-06-20T16:14:27.280Z,1684.00
2019-06-20T16:15:27.277Z,1648.00
2019-06-20T16:16:27.260Z,1568.00
2019-06-20T16:17:27.259Z,1468.00
2019-06-20T16:18:27.237Z,1300.00
2019-06-20T16:19:27.224Z,1212.00
2019-06-20T16:20:27.231Z,1188.00
2019-06-20T16:22:27.250Z,1004.00
2019-06-20T16:23:27.179Z,912.00
2019-06-20T16:24:27.192Z,844.00
2019-06-20T16:25:27.159Z,792.00
2019-06-20T16:26:27.149Z,780.00
2019-06-20T16:27:27.136Z,812.00
2019-06-20T16:28:27.126Z,844.00
2019-06-20T16:29:27.113Z,876.00
2019-06-20T16:30:27.116Z,960.00
2019-06-20T16:31:27.412Z,1024.00
2019-06-20T16:32:27.085Z,1040.00
2019-06-20T16:33:27.077Z,1048.00
2019-06-20T16:34:27.057Z,1128.00
2019-06-20T16:35:27.046Z,1248.00
2019-06-20T16:36:27.038Z,1384.00
2019-06-20T16:37:27.030Z,1508.00
2019-06-20T16:38:27.008Z,1644.00
2019-06-20T16:39:27.010Z,1768.00
2019-06-20T16:40:26.995Z,1940.00
2019-06-20T16:41:26.984Z,2088.00
2019-06-20T16:42:27.023Z,2120.00
2019-06-20T16:43:26.962Z,2000.00
2019-06-20T16:44:26.946Z,1836.00
2019-06-20T16:45:26.939Z,1680.00
2019-06-20T16:46:26.920Z,1540.00
2019-06-20T16:47:26.913Z,1424.00
2019-06-20T16:48:26.911Z,1356.00
2019-06-20T16:49:26.901Z,1372.00
2019-06-20T16:50:26.881Z,1408.00
2019-06-20T16:51:26.864Z,1428.00
2019-06-20T16:52:26.864Z,1420.00
2019-06-20T16:53:26.851Z,1352.00
2019-06-20T16:54:26.840Z,1268.00
2019-06-20T16:55:26.831Z,1224.00
2019-06-20T16:56:26.814Z,1204.00
2019-06-20T16:57:26.805Z,1212.00
2019-06-20T16:58:26.794Z,1252.00
2019-06-20T16:59:26.783Z,1348.00
2019-06-20T17:00:26.768Z,1456.00
2019-06-20T17:01:26.767Z,1516.00
2019-06-20T17:02:26.765Z,1604.00
2019-06-20T17:03:40.774Z,1792.00
2019-06-20T17:04:48.621Z,1880.00
2019-06-20T17:05:48.596Z,1952.00
2019-06-20T17:06:48.589Z,2152.00
2019-06-20T17:07:48.585Z,2244.00
2019-06-20T17:08:48.550Z,2120.00
2019-06-20T17:09:48.544Z,1816.00
2019-06-20T17:11:48.518Z,1296.00
2019-06-20T17:12:48.521Z,1076.00
2019-06-20T17:13:48.512Z,964.00
2019-06-20T17:14:48.481Z,892.00
2019-06-20T17:15:48.475Z,908.00
2019-06-20T17:16:48.465Z,968.00
2019-06-20T17:17:48.462Z,1088.00
2019-06-20T17:18:48.450Z,1160.00
2019-06-20T17:19:48.447Z,1088.00
2019-06-20T17:20:48.434Z,1012.00
2019-06-20T17:22:48.400Z,992.00
2019-06-20T17:23:48.394Z,1028.00
2019-06-20T17:24:48.373Z,1020.00
2019-06-20T17:25:48.379Z,980.00
2019-06-20T17:27:48.349Z,920.00
2019-06-20T17:28:48.350Z,944.00
2019-06-20T17:29:48.322Z,964.00
2019-06-20T17:31:48.319Z,928.00
2019-06-20T17:39:32.528Z,1092.00
2019-06-20T17:40:32.515Z,1212.00
2019-06-20T17:41:32.501Z,1208.00
2019-06-20T17:42:32.487Z,1168.00
2019-06-20T17:43:32.470Z,1072.00
2019-06-20T17:44:32.459Z,992.00
2019-06-20T17:49:32.429Z,1100.00
2019-06-20T17:50:32.403Z,1108.00
2019-06-20T17:51:32.387Z,1104.00
2019-06-20T17:52:32.396Z,1092.00
2019-06-20T17:53:32.368Z,1056.00
2019-06-20T17:54:32.380Z,1044.00
2019-06-20T17:56:32.340Z,1096.00
2019-06-20T17:58:32.314Z,1028.00
2019-06-20T18:00:32.292Z,992.00
2019-06-20T18:01:35.909Z,996.00
2019-06-20T18:02:32.278Z,956.00
2019-06-20T18:03:32.266Z,936.00
2019-06-20T18:04:32.248Z,888.00
2019-06-20T18:05:32.235Z,868.00
2019-06-20T18:07:32.212Z,840.00
2019-06-20T18:09:32.202Z,804.00
2019-06-20T18:10:32.184Z,772.00
2019-06-20T18:11:32.183Z,764.00
2019-06-20T18:13:32.146Z,756.00
2019-06-20T18:15:34.008Z,720.00
2019-06-20T18:16:32.134Z,724.00
2019-06-20T18:18:32.107Z,684.00
2019-06-20T18:19:32.131Z,672.00
2019-06-20T18:20:32.074Z,664.00
2019-06-20T18:23:32.071Z,652.00
2019-06-20T18:24:32.033Z,624.00
2019-06-20T18:25:32.067Z,592.00
2019-06-20T18:26:32.007Z,556.00
2019-06-20T18:27:31.999Z,540.00
2019-06-20T18:28:32.031Z,524.00
2019-06-20T18:29:32.013Z,504.00
2019-06-20T18:32:31.947Z,464.00
2019-06-20T18:33:31.933Z,452.00
2019-06-20T18:34:31.980Z,464.00
2019-06-20T18:35:31.909Z,464.00
2019-06-20T18:36:31.919Z,452.00
2019-06-20T18:38:31.877Z,440.00
2019-06-20T18:39:31.865Z,428.00
2019-06-20T18:41:31.847Z,424.00
2019-06-20T18:44:31.816Z,396.00
2019-06-20T18:46:31.783Z,400.00
2019-06-20T18:47:31.798Z,392.00
2019-06-20T18:48:31.768Z,380.00
2019-06-20T18:49:31.831Z,372.00
2019-06-20T18:50:31.751Z,372.00
2019-06-20T18:51:31.731Z,380.00
2019-06-20T18:54:31.712Z,404.00
2019-06-20T18:55:31.694Z,404.00
2019-06-20T18:56:31.715Z,400.00
2019-06-20T18:57:31.675Z,392.00
2019-06-20T18:58:31.661Z,384.00
2019-06-20T18:59:32.822Z,376.00
2019-06-20T19:00:34.981Z,356.00
2019-06-20T19:01:31.630Z,332.00
2019-06-20T19:02:31.615Z,312.00
2019-06-20T19:05:53.562Z,284.00
2019-06-20T19:06:53.568Z,284.00
2019-06-20T19:07:53.537Z,280.00
2019-06-20T19:08:53.524Z,288.00
2019-06-20T19:12:53.491Z,204.00
2019-06-20T19:14:53.516Z,196.00
2019-06-20T19:16:53.447Z,176.00
2019-06-20T19:17:53.443Z,164.00
2019-06-20T19:18:53.477Z,156.00
2019-06-20T19:20:53.401Z,144.00
2019-06-20T19:21:53.384Z,140.00
2019-06-20T19:22:53.380Z,132.00
2019-06-20T19:23:55.389Z,124.00
2019-06-20T19:24:53.355Z,120.00
2019-06-20T19:25:53.334Z,104.00
2019-06-20T19:27:53.334Z,84.00
2019-06-20T19:29:53.350Z,72.00
2019-06-20T19:35:01.770Z,36.00
2019-06-20T19:36:15.671Z,48.00
2019-06-20T19:41:15.601Z,48.00
2019-06-20T19:47:15.537Z,40.00
2019-06-20T19:48:15.520Z,36.00
2019-06-20T20:03:15.360Z,12.00
2019-06-20T20:05:19.654Z,12.00
2019-06-20T20:09:15.291Z,8.00
2019-06-20T20:15:15.238Z,4.00
